createdAt,value
2023-02-24T00:01:23.983Z,6.13
2023-02-24T00:06:16.509Z,4.57
2023-02-24T00:08:42.788Z,6.57
2023-02-24T00:11:13.140Z,7.23
2023-02-24T00:13:40.215Z,8.43
2023-02-24T00:16:07.376Z,7.47
2023-02-24T00:18:33.992Z,8.93
2023-02-24T00:21:05.519Z,7.70
2023-02-24T00:23:31.817Z,7.77
2023-02-24T00:25:59.130Z,7.23
2023-02-24T00:28:26.148Z,7.93
2023-02-24T00:30:52.573Z,11.87
2023-02-24T00:33:24.354Z,9.03
2023-02-24T00:35:51.031Z,8.07
2023-02-24T00:38:17.760Z,11.77
2023-02-24T00:40:47.962Z,7.13
2023-02-24T00:43:14.264Z,6.50
2023-02-24T00:45:40.638Z,7.20
2023-02-24T00:48:10.563Z,9.47
2023-02-24T00:50:39.026Z,18.13
2023-02-24T00:53:05.832Z,7.83
2023-02-24T00:55:36.359Z,7.07
2023-02-24T00:58:07.337Z,9.53
2023-02-24T01:00:36.667Z,7.37
2023-02-24T01:03:03.510Z,6.93
2023-02-24T01:05:29.832Z,13.17
2023-02-24T01:07:56.132Z,6.67
2023-02-24T01:10:23.421Z,7.40
2023-02-24T01:12:49.939Z,10.10
2023-02-24T01:15:17.685Z,5.83
2023-02-24T01:17:44.199Z,6.97
2023-02-24T01:20:18.191Z,7.23
2023-02-24T01:22:45.597Z,6.23
2023-02-24T01:25:12.039Z,8.13
2023-02-24T01:27:40.220Z,9.70
2023-02-24T01:30:15.964Z,6.83
2023-02-24T01:32:43.110Z,6.73
2023-02-24T01:35:11.466Z,7.90
2023-02-24T01:37:38.193Z,6.73
2023-02-24T01:40:11.242Z,7.50
2023-02-24T01:42:41.131Z,7.17
2023-02-24T01:45:15.042Z,7.73
2023-02-24T01:47:41.741Z,8.47
2023-02-24T01:50:08.806Z,9.00
2023-02-24T01:52:36.528Z,7.30
2023-02-24T01:55:10.646Z,8.40
2023-02-24T01:57:38.678Z,8.13
2023-02-24T02:00:11.217Z,8.37
2023-02-24T02:02:43.410Z,9.53
2023-02-24T02:05:10.326Z,6.90
2023-02-24T02:07:38.948Z,7.73
2023-02-24T02:10:09.081Z,8.57
2023-02-24T02:12:37.151Z,7.50
2023-02-24T02:15:04.379Z,6.13
2023-02-24T02:17:30.651Z,6.87
2023-02-24T02:20:15.808Z,9.73
2023-02-24T02:22:42.160Z,7.40
2023-02-24T02:25:09.493Z,6.50
2023-02-24T02:27:57.990Z,7.43
2023-02-24T02:30:28.149Z,6.43
2023-02-24T02:33:01.727Z,8.03
2023-02-24T02:35:31.696Z,6.43
2023-02-24T02:38:10.711Z,5.63
2023-02-24T02:40:39.370Z,8.70
2023-02-24T02:43:14.767Z,10.83
2023-02-24T02:45:47.653Z,6.33
2023-02-24T02:48:20.239Z,5.23
2023-02-24T02:50:52.063Z,5.60
2023-02-24T02:53:23.109Z,4.97
2023-02-24T02:55:53.469Z,5.87
2023-02-24T02:58:23.588Z,3.90
2023-02-24T03:01:01.624Z,3.63
2023-02-24T03:03:57.318Z,3.40
2023-02-24T03:06:26.282Z,5.63
2023-02-24T03:08:58.153Z,6.00
2023-02-24T03:11:25.891Z,6.60
2023-02-24T03:13:54.498Z,5.17
2023-02-24T03:16:23.112Z,4.23
2023-02-24T03:18:56.597Z,4.07
2023-02-24T03:21:38.292Z,10.17
2023-02-24T03:24:06.352Z,8.37
2023-02-24T03:26:52.100Z,3.27
2023-02-24T03:29:24.377Z,8.83
2023-02-24T03:31:54.236Z,4.47
2023-02-24T03:34:44.198Z,7.07
2023-02-24T03:37:10.579Z,2.50
2023-02-24T03:39:36.872Z,2.73
2023-02-24T03:42:29.439Z,3.57
2023-02-24T03:44:58.457Z,5.03
2023-02-24T03:47:25.593Z,4.23
2023-02-24T03:49:51.932Z,3.70
2023-02-24T03:52:32.404Z,4.83
2023-02-24T03:55:01.903Z,2.60
2023-02-24T03:57:37.384Z,2.53
2023-02-24T04:00:16.660Z,3.70
2023-02-24T04:02:43.603Z,2.97
2023-02-24T04:05:20.632Z,3.60
2023-02-24T04:08:00.991Z,3.10
2023-02-24T04:10:31.621Z,3.17
2023-02-24T04:13:02.224Z,3.20
2023-02-24T04:15:31.578Z,8.97
2023-02-24T04:18:07.130Z,8.50
2023-02-24T04:20:34.956Z,4.33
2023-02-24T04:23:16.208Z,3.43
2023-02-24T04:25:44.261Z,2.67
2023-02-24T04:28:11.776Z,3.83
2023-02-24T04:30:40.874Z,3.40
2023-02-24T04:33:07.677Z,4.77
2023-02-24T04:35:34.144Z,4.93
2023-02-24T04:38:00.465Z,12.80
2023-02-24T04:40:26.866Z,3.03
2023-02-24T04:42:53.934Z,4.53
2023-02-24T04:45:28.107Z,4.63
2023-02-24T04:47:56.257Z,3.57
2023-02-24T04:50:24.262Z,5.27
2023-02-24T04:52:51.800Z,2.53
2023-02-24T04:55:19.391Z,3.47
2023-02-24T04:57:46.042Z,4.00
2023-02-24T05:00:20.682Z,3.77
2023-02-24T05:02:48.384Z,2.97
2023-02-24T05:05:15.421Z,4.27
2023-02-24T05:07:41.790Z,3.17
2023-02-24T05:10:08.266Z,3.47
2023-02-24T05:12:34.568Z,2.63
2023-02-24T05:15:01.354Z,3.43
2023-02-24T05:17:27.962Z,4.30
2023-02-24T05:20:13.161Z,3.20
2023-02-24T05:22:39.498Z,3.58
2023-02-24T05:25:06.056Z,3.03
2023-02-24T05:27:32.363Z,3.67
2023-02-24T05:29:58.669Z,12.77
2023-02-24T05:32:25.430Z,6.03
2023-02-24T05:34:51.817Z,8.40
2023-02-24T05:37:18.429Z,4.87
2023-02-24T05:39:44.747Z,8.07
2023-02-24T05:42:11.597Z,9.13
2023-02-24T05:44:37.907Z,2.20
2023-02-24T05:47:05.521Z,2.00
2023-02-24T05:49:34.030Z,2.10
2023-02-24T05:52:01.946Z,3.07
2023-02-24T05:54:32.935Z,2.20
2023-02-24T05:57:13.377Z,2.10
2023-02-24T05:59:41.183Z,2.43
2023-02-24T06:02:09.413Z,2.20
2023-02-24T06:04:39.837Z,2.33
2023-02-24T06:07:07.310Z,2.57
2023-02-24T06:09:34.605Z,2.50
2023-02-24T06:12:02.501Z,8.63
2023-02-24T06:14:28.857Z,6.17
2023-02-24T06:16:55.220Z,8.53
2023-02-24T06:19:21.506Z,8.57
2023-02-24T06:21:47.801Z,9.70
2023-02-24T06:24:15.252Z,8.80
2023-02-24T06:26:43.381Z,7.63
2023-02-24T06:29:14.608Z,9.47
2023-02-24T06:31:41.796Z,7.53
2023-02-24T06:34:10.478Z,10.13
2023-02-24T06:36:37.712Z,9.63
2023-02-24T06:39:08.063Z,10.57
2023-02-24T06:41:35.101Z,10.10
2023-02-24T06:44:01.545Z,13.07
2023-02-24T06:46:28.222Z,17.80
2023-02-24T06:48:54.605Z,14.57
2023-02-24T06:51:21.530Z,16.50
2023-02-24T06:53:49.081Z,20.00
2023-02-24T06:56:17.993Z,15.10
2023-02-24T06:58:45.140Z,15.67
2023-02-24T07:01:15.700Z,15.80
2023-02-24T07:03:47.804Z,18.13
2023-02-24T07:06:28.513Z,18.87
2023-02-24T07:08:57.117Z,17.73
2023-02-24T07:11:24.145Z,18.33
2023-02-24T07:13:50.578Z,20.67
2023-02-24T07:16:17.966Z,18.70
2023-02-24T07:18:48.218Z,19.30
2023-02-24T07:21:16.322Z,17.03
2023-02-24T07:23:49.572Z,6.60
2023-02-24T07:26:17.058Z,7.30
2023-02-24T07:28:43.658Z,8.20
2023-02-24T07:31:12.013Z,7.97
2023-02-24T07:33:45.080Z,13.83
2023-02-24T07:36:14.844Z,9.10
2023-02-24T07:38:42.050Z,7.37
2023-02-24T07:41:10.724Z,7.43
2023-02-24T07:43:37.485Z,23.97
2023-02-24T07:46:11.844Z,15.83
2023-02-24T07:48:39.508Z,14.30
2023-02-24T07:51:09.673Z,19.97
2023-02-24T07:53:36.487Z,11.10
2023-02-24T07:56:13.662Z,22.40
2023-02-24T07:58:59.535Z,11.37
2023-02-24T08:01:28.213Z,16.73
2023-02-24T08:04:03.446Z,21.30
2023-02-24T08:06:38.104Z,19.60
2023-02-24T08:09:18.467Z,16.52
2023-02-24T08:11:46.051Z,11.30
2023-02-24T08:14:16.292Z,15.27
2023-02-24T08:16:43.344Z,30.03
2023-02-24T08:19:13.183Z,27.33
2023-02-24T08:21:41.383Z,15.60
2023-02-24T08:24:17.502Z,14.10
2023-02-24T08:27:05.041Z,11.10
2023-02-24T08:29:31.835Z,12.00
2023-02-24T08:31:59.216Z,22.57
2023-02-24T08:34:31.630Z,16.77
2023-02-24T08:36:58.344Z,45.37
2023-02-24T08:39:24.835Z,13.23
2023-02-24T08:41:51.583Z,19.73
2023-02-24T08:44:21.802Z,19.53
2023-02-24T08:46:52.380Z,15.63
2023-02-24T08:49:19.705Z,13.07
2023-02-24T08:51:47.417Z,17.83
2023-02-24T08:54:17.702Z,19.60
2023-02-24T08:56:49.019Z,10.47
2023-02-24T08:59:37.418Z,18.77
2023-02-24T09:02:23.351Z,15.70
2023-02-24T09:05:03.962Z,25.30
2023-02-24T09:07:37.773Z,24.57
2023-02-24T09:10:05.787Z,26.50
2023-02-24T09:12:32.187Z,14.07
2023-02-24T09:15:01.825Z,21.37
2023-02-24T09:17:49.810Z,16.30
2023-02-24T09:20:56.202Z,20.47
2023-02-24T09:23:29.806Z,21.15
2023-02-24T09:25:56.803Z,12.50
2023-02-24T09:28:24.967Z,29.30
2023-02-24T09:30:55.384Z,28.97
2023-02-24T09:33:22.375Z,22.67
2023-02-24T09:35:50.471Z,31.60
2023-02-24T09:38:18.087Z,25.03
2023-02-24T09:40:52.066Z,22.83
2023-02-24T09:43:20.459Z,24.80
2023-02-24T09:45:53.449Z,28.37
2023-02-24T09:48:26.435Z,13.47
2023-02-24T09:51:05.205Z,22.20
2023-02-24T09:53:41.877Z,9.90
2023-02-24T09:56:13.390Z,29.20
2023-02-24T09:58:58.657Z,31.50
2023-02-24T10:01:43.307Z,21.13
2023-02-24T10:04:22.986Z,19.95
2023-02-24T10:06:51.663Z,30.10
2023-02-24T10:09:27.118Z,35.97
2023-02-24T10:11:55.217Z,26.23
2023-02-24T10:14:27.432Z,46.40
2023-02-24T10:17:15.105Z,34.87
2023-02-24T10:19:41.879Z,20.87
2023-02-24T10:22:34.718Z,32.93
2023-02-24T10:25:21.252Z,46.00
2023-02-24T10:28:06.259Z,25.10
2023-02-24T10:31:01.473Z,47.08
2023-02-24T10:33:31.700Z,56.72
2023-02-24T10:36:09.247Z,46.00
2023-02-24T10:38:36.554Z,20.50
2023-02-24T10:41:06.153Z,37.40
2023-02-24T10:43:34.710Z,27.90
2023-02-24T10:46:16.985Z,28.83
2023-02-24T10:48:50.853Z,56.23
2023-02-24T10:51:30.352Z,26.03
2023-02-24T10:54:22.424Z,40.90
2023-02-24T10:57:10.235Z,48.27
2023-02-24T11:00:10.633Z,21.43
2023-02-24T11:02:56.571Z,36.37
2023-02-24T11:05:38.354Z,46.43
2023-02-24T11:08:07.725Z,47.37
2023-02-24T11:10:52.782Z,68.17
2023-02-24T11:13:37.902Z,25.75
2023-02-24T11:16:26.463Z,31.83
2023-02-24T11:18:54.580Z,20.73
2023-02-24T11:21:23.094Z,37.23
2023-02-24T11:23:51.168Z,50.17
2023-02-24T11:26:26.603Z,43.67
2023-02-24T11:28:59.450Z,29.80
2023-02-24T11:31:44.770Z,29.80
2023-02-24T11:34:18.606Z,40.60
2023-02-24T11:36:54.543Z,44.53
2023-02-24T11:39:45.548Z,28.83
2023-02-24T11:42:16.299Z,76.57
2023-02-24T11:44:50.761Z,37.77
2023-02-24T11:47:20.065Z,27.70
2023-02-24T11:49:50.407Z,46.90
2023-02-24T11:52:19.895Z,46.63
2023-02-24T11:54:52.224Z,39.57
2023-02-24T11:57:21.528Z,31.87
2023-02-24T12:00:13.304Z,20.73
2023-02-24T12:02:39.790Z,18.90
2023-02-24T12:05:12.909Z,19.83
2023-02-24T12:07:44.474Z,22.57
2023-02-24T12:10:17.269Z,46.33
2023-02-24T12:13:07.446Z,45.97
2023-02-24T12:15:38.950Z,17.13
2023-02-24T12:18:24.339Z,20.70
2023-02-24T12:21:06.880Z,20.95
2023-02-24T12:23:34.522Z,27.60
2023-02-24T12:26:08.927Z,20.33
2023-02-24T12:28:35.354Z,15.98
2023-02-24T12:31:23.928Z,53.90
2023-02-24T12:33:50.575Z,22.27
2023-02-24T12:36:19.427Z,48.70
2023-02-24T12:39:00.392Z,31.87
2023-02-24T12:41:32.986Z,20.27
2023-02-24T12:44:02.072Z,20.13
2023-02-24T12:46:38.322Z,44.17
2023-02-24T12:49:23.710Z,31.17
2023-02-24T12:52:13.285Z,22.05
2023-02-24T12:54:45.384Z,29.77
2023-02-24T12:57:11.695Z,19.40
2023-02-24T12:59:39.106Z,26.17
2023-02-24T13:02:05.563Z,27.87
2023-02-24T13:04:47.462Z,23.47
2023-02-24T13:07:28.863Z,19.03
2023-02-24T13:09:58.282Z,31.37
2023-02-24T13:12:34.205Z,22.33
2023-02-24T13:15:00.882Z,9.40
2023-02-24T13:17:27.379Z,16.80
2023-02-24T13:19:55.304Z,12.90
2023-02-24T13:22:23.797Z,9.37
2023-02-24T13:24:56.075Z,14.33
2023-02-24T13:27:26.708Z,13.47
2023-02-24T13:29:57.177Z,15.07
2023-02-24T13:32:34.283Z,18.97
2023-02-24T13:35:02.647Z,22.87
2023-02-24T13:37:34.616Z,30.53
2023-02-24T13:40:12.198Z,20.07
2023-02-24T13:42:38.608Z,33.93
2023-02-24T13:45:06.535Z,18.00
2023-02-24T13:47:51.401Z,19.63
2023-02-24T13:50:21.033Z,56.25
2023-02-24T13:53:06.479Z,21.00
2023-02-24T13:55:32.764Z,20.23
2023-02-24T13:58:02.129Z,28.93
2023-02-24T14:00:36.178Z,21.10
2023-02-24T14:03:09.163Z,39.57
2023-02-24T14:05:35.986Z,20.73
2023-02-24T14:08:03.313Z,16.60
2023-02-24T14:10:34.674Z,18.97
2023-02-24T14:13:06.427Z,24.53
2023-02-24T14:15:33.415Z,15.87
2023-02-24T14:18:03.793Z,16.03
2023-02-24T14:20:34.440Z,19.17
2023-02-24T14:23:01.185Z,31.53
2023-02-24T14:25:29.838Z,14.17
2023-02-24T14:27:56.905Z,27.20
2023-02-24T14:30:26.088Z,44.83
2023-02-24T14:32:52.893Z,22.93
2023-02-24T14:35:41.729Z,22.83
2023-02-24T14:38:27.244Z,37.33
2023-02-24T14:40:53.575Z,24.17
2023-02-24T14:43:20.235Z,28.57
2023-02-24T14:45:50.352Z,28.83
2023-02-24T14:48:24.442Z,23.10
2023-02-24T14:50:50.968Z,31.20
2023-02-24T14:53:18.770Z,32.07
2023-02-24T14:55:50.018Z,23.67
2023-02-24T14:58:21.669Z,10.03
2023-02-24T15:00:49.840Z,37.00
2023-02-24T15:03:23.695Z,15.57
2023-02-24T15:05:52.210Z,18.13
2023-02-24T15:08:31.449Z,23.43
2023-02-24T15:10:58.129Z,20.17
2023-02-24T15:13:33.982Z,13.37
2023-02-24T15:16:04.484Z,65.87
2023-02-24T15:18:30.866Z,49.70
2023-02-24T15:21:01.289Z,37.97
2023-02-24T15:23:32.757Z,40.20
2023-02-24T15:25:59.389Z,23.40
2023-02-24T15:28:33.041Z,36.97
2023-02-24T15:31:04.762Z,13.30
2023-02-24T15:33:35.903Z,22.07
2023-02-24T15:36:05.402Z,12.77
2023-02-24T15:38:42.297Z,14.63
2023-02-24T15:41:09.948Z,12.83
2023-02-24T15:43:37.201Z,17.47
2023-02-24T15:46:13.792Z,43.40
2023-02-24T15:48:42.643Z,12.13
2023-02-24T15:51:17.997Z,17.33
2023-02-24T15:53:44.276Z,22.27
2023-02-24T15:56:10.565Z,30.80
2023-02-24T15:58:38.059Z,13.60
2023-02-24T16:01:04.482Z,18.27
2023-02-24T16:03:32.672Z,14.57
2023-02-24T16:05:59.747Z,13.50
2023-02-24T16:08:26.143Z,26.60
2023-02-24T16:10:53.829Z,23.90
2023-02-24T16:13:24.060Z,23.67
2023-02-24T16:15:50.856Z,20.07
2023-02-24T16:18:21.705Z,21.53
2023-02-24T16:20:54.165Z,19.53
2023-02-24T16:23:22.174Z,22.47
2023-02-24T16:25:49.503Z,30.23
2023-02-24T16:28:17.118Z,27.93
2023-02-24T16:30:44.183Z,17.00
2023-02-24T16:33:12.868Z,13.13
2023-02-24T16:35:41.636Z,15.93
2023-02-24T16:38:14.988Z,16.57
2023-02-24T16:40:42.720Z,22.70
2023-02-24T16:43:09.365Z,8.80
2023-02-24T16:45:36.325Z,15.77
2023-02-24T16:48:05.086Z,23.27
2023-02-24T16:50:33.460Z,8.37
2023-02-24T16:52:59.816Z,14.40
2023-02-24T16:55:26.427Z,18.63
2023-02-24T16:57:52.730Z,14.77
2023-02-24T17:00:23.880Z,9.17
2023-02-24T17:02:50.615Z,13.30
2023-02-24T17:05:17.146Z,15.70
2023-02-24T17:07:43.448Z,8.17
2023-02-24T17:10:10.189Z,9.37
2023-02-24T17:12:36.497Z,13.30
2023-02-24T17:15:02.906Z,13.83
2023-02-24T17:17:29.267Z,6.23
2023-02-24T17:19:55.588Z,16.07
2023-02-24T17:22:22.545Z,13.47
2023-02-24T17:24:49.119Z,16.77
2023-02-24T17:27:15.410Z,25.80
2023-02-24T17:29:41.756Z,38.40
2023-02-24T17:32:08.305Z,23.00
2023-02-24T17:34:34.805Z,7.97
2023-02-24T17:37:01.111Z,6.70
2023-02-24T17:39:27.505Z,9.17
2023-02-24T17:41:54.876Z,3.07
2023-02-24T17:44:21.231Z,9.60
2023-02-24T17:46:47.566Z,7.40
2023-02-24T17:49:13.930Z,8.77
2023-02-24T17:51:40.288Z,17.10
2023-02-24T17:54:06.768Z,38.20
2023-02-24T17:56:33.076Z,4.90
2023-02-24T17:59:00.934Z,13.40
2023-02-24T18:01:27.663Z,11.10
2023-02-24T18:03:55.339Z,12.43
2023-02-24T18:06:21.942Z,6.07
2023-02-24T18:08:48.436Z,7.33
2023-02-24T18:11:16.068Z,4.20
2023-02-24T18:13:42.684Z,6.67
2023-02-24T18:16:10.547Z,10.37
2023-02-24T18:18:37.082Z,10.83
2023-02-24T18:21:05.226Z,6.33
2023-02-24T18:23:32.167Z,18.43
2023-02-24T18:26:05.403Z,15.00
2023-02-24T18:28:32.386Z,14.90
2023-02-24T18:31:00.488Z,17.67
2023-02-24T18:33:27.654Z,15.63
2023-02-24T18:36:00.174Z,17.50
2023-02-24T18:38:26.534Z,27.37
2023-02-24T18:41:03.766Z,27.67
2023-02-24T18:43:30.513Z,9.10
2023-02-24T18:45:58.044Z,9.80
2023-02-24T18:48:24.720Z,9.40
2023-02-24T18:50:54.598Z,9.73
2023-02-24T18:53:21.510Z,16.43
2023-02-24T18:55:48.471Z,14.07
2023-02-24T18:58:15.130Z,9.40
2023-02-24T19:00:41.971Z,13.73
2023-02-24T19:03:08.321Z,14.83
2023-02-24T19:05:38.711Z,12.93
2023-02-24T19:08:05.514Z,13.23
2023-02-24T19:10:31.906Z,18.93
2023-02-24T19:12:58.196Z,18.90
2023-02-24T19:15:24.501Z,15.17
2023-02-24T19:17:50.814Z,14.07
2023-02-24T19:20:17.330Z,21.60
2023-02-24T19:22:43.822Z,8.83
2023-02-24T19:25:10.204Z,12.60
2023-02-24T19:27:36.511Z,13.03
2023-02-24T19:30:02.937Z,11.77
2023-02-24T19:32:29.322Z,9.63
2023-02-24T19:34:55.714Z,8.80
2023-02-24T19:37:22.087Z,11.73
2023-02-24T19:39:48.431Z,10.73
2023-02-24T19:42:14.806Z,10.17
2023-02-24T19:44:41.232Z,10.70
2023-02-24T19:47:07.551Z,14.03
2023-02-24T19:49:34.182Z,14.50
2023-02-24T19:52:00.706Z,11.70
2023-02-24T19:54:27.907Z,19.83
2023-02-24T19:56:57.218Z,9.77
2023-02-24T19:59:24.031Z,23.73
2023-02-24T20:01:57.285Z,15.03
2023-02-24T20:04:23.857Z,12.70
2023-02-24T20:06:50.204Z,11.97
2023-02-24T20:09:21.146Z,12.37
2023-02-24T20:11:48.317Z,9.77
2023-02-24T20:14:15.632Z,11.90
2023-02-24T20:16:42.735Z,17.90
2023-02-24T20:19:09.989Z,9.70
2023-02-24T20:21:38.441Z,10.63
2023-02-24T20:24:06.067Z,7.67
2023-02-24T20:26:32.859Z,10.90
2023-02-24T20:28:59.668Z,10.53
2023-02-24T20:31:26.155Z,7.63
2023-02-24T20:33:52.633Z,11.57
2023-02-24T20:36:20.576Z,13.47
2023-02-24T20:38:47.191Z,10.57
2023-02-24T20:41:14.010Z,15.07
2023-02-24T20:43:40.352Z,12.93
2023-02-24T20:46:12.613Z,9.77
2023-02-24T20:48:38.971Z,7.60
2023-02-24T20:51:05.640Z,11.17
2023-02-24T20:53:31.989Z,9.37
2023-02-24T20:56:02.579Z,7.73
2023-02-24T20:58:28.931Z,12.57
2023-02-24T21:00:55.302Z,8.60
2023-02-24T21:03:23.825Z,8.33
2023-02-24T21:05:58.855Z,10.50
2023-02-24T21:08:30.870Z,5.73
2023-02-24T21:10:57.160Z,7.43
2023-02-24T21:13:23.605Z,22.30
2023-02-24T21:15:51.860Z,5.30
2023-02-24T21:18:19.022Z,9.33
2023-02-24T21:20:45.481Z,4.87
2023-02-24T21:23:11.851Z,11.77
2023-02-24T21:25:38.600Z,12.60
2023-02-24T21:28:05.100Z,7.17
2023-02-24T21:30:31.441Z,11.10
2023-02-24T21:32:57.834Z,7.67
2023-02-24T21:35:24.123Z,7.30
2023-02-24T21:37:50.412Z,4.53
2023-02-24T21:40:17.635Z,3.83
2023-02-24T21:42:46.865Z,8.37
2023-02-24T21:45:18.208Z,6.27
2023-02-24T21:47:44.999Z,7.07
2023-02-24T21:50:13.270Z,7.40
2023-02-24T21:52:39.948Z,4.57
2023-02-24T21:55:07.118Z,7.87
2023-02-24T21:57:37.005Z,7.57
2023-02-24T22:00:11.554Z,5.23
2023-02-24T22:02:37.849Z,9.27
2023-02-24T22:05:04.227Z,8.87
2023-02-24T22:07:30.523Z,3.80
2023-02-24T22:09:56.860Z,11.87
2023-02-24T22:12:23.245Z,4.00
2023-02-24T22:14:49.553Z,5.57
2023-02-24T22:17:15.867Z,7.20
2023-02-24T22:19:42.153Z,12.20
2023-02-24T22:22:08.944Z,6.43
2023-02-24T22:24:35.582Z,5.23
2023-02-24T22:27:02.060Z,3.33
2023-02-24T22:29:28.377Z,5.43
2023-02-24T22:31:54.754Z,5.90
2023-02-24T22:34:21.116Z,2.57
2023-02-24T22:36:47.446Z,2.47
2023-02-24T22:39:16.547Z,3.33
2023-02-24T22:41:43.142Z,4.50
2023-02-24T22:44:09.885Z,4.37
2023-02-24T22:46:37.441Z,4.47
2023-02-24T22:49:04.586Z,6.27
2023-02-24T22:51:30.998Z,4.77
2023-02-24T22:53:57.350Z,3.83
2023-02-24T22:56:27.622Z,5.93
2023-02-24T22:58:54.076Z,4.83
2023-02-24T23:01:31.709Z,8.07
2023-02-24T23:04:02.087Z,5.03
2023-02-24T23:06:29.352Z,6.73
2023-02-24T23:08:56.692Z,9.27
2023-02-24T23:11:27.845Z,8.63
2023-02-24T23:13:54.607Z,8.53
2023-02-24T23:16:22.861Z,4.63
2023-02-24T23:18:50.813Z,3.30
2023-02-24T23:21:19.233Z,5.97
2023-02-24T23:23:46.141Z,8.03
2023-02-24T23:26:12.498Z,3.67
2023-02-24T23:28:39.251Z,4.47
2023-02-24T23:31:06.002Z,3.97
2023-02-24T23:33:32.692Z,5.23
2023-02-24T23:36:03.290Z,3.87
2023-02-24T23:38:29.611Z,6.00
2023-02-24T23:40:55.954Z,5.73
2023-02-24T23:43:22.250Z,3.37
2023-02-24T23:45:48.661Z,6.30
2023-02-24T23:48:15.043Z,7.57
2023-02-24T23:50:42.140Z,3.43
2023-02-24T23:53:08.961Z,3.30
2023-02-24T23:55:35.640Z,7.80
2023-02-24T23:58:02.585Z,4.37
